sensor_id;sensor_type;location;lat;lon;timestamp;temperature;humidity
44487;DHT22;30191;50.908;6.962;2022-09-19T00:00:13;10.40;99.90
44487;DHT22;30191;50.908;6.962;2022-09-19T00:02:39;10.40;99.90
44487;DHT22;30191;50.908;6.962;2022-09-19T00:05:05;10.40;99.90
44487;DHT22;30191;50.908;6.962;2022-09-19T00:07:32;10.40;99.90
44487;DHT22;30191;50.908;6.962;2022-09-19T00:09:58;10.50;99.90
44487;DHT22;30191;50.908;6.962;2022-09-19T00:12:24;10.50;99.90
44487;DHT22;30191;50.908;6.962;2022-09-19T00:14:50;10.50;99.90
44487;DHT22;30191;50.908;6.962;2022-09-19T00:17:16;10.50;99.90
44487;DHT22;30191;50.908;6.962;2022-09-19T00:19:42;10.50;99.90
44487;DHT22;30191;50.908;6.962;2022-09-19T00:22:08;10.50;99.90
44487;DHT22;30191;50.908;6.962;2022-09-19T00:24:34;10.50;99.90
44487;DHT22;30191;50.908;6.962;2022-09-19T00:27:20;10.50;99.90
44487;DHT22;30191;50.908;6.962;2022-09-19T00:29:46;10.50;99.90
44487;DHT22;30191;50.908;6.962;2022-09-19T00:32:12;10.50;99.90
44487;DHT22;30191;50.908;6.962;2022-09-19T00:34:47;10.50;99.90
44487;DHT22;30191;50.908;6.962;2022-09-19T00:37:14;10.50;99.90
44487;DHT22;30191;50.908;6.962;2022-09-19T00:39:40;10.60;99.90
44487;DHT22;30191;50.908;6.962;2022-09-19T00:42:19;10.60;99.90
44487;DHT22;30191;50.908;6.962;2022-09-19T00:44:58;10.60;99.90
44487;DHT22;30191;50.908;6.962;2022-09-19T00:47:29;10.60;99.90
44487;DHT22;30191;50.908;6.962;2022-09-19T00:50:02;10.60;99.90
44487;DHT22;30191;50.908;6.962;2022-09-19T00:52:33;10.60;99.90
44487;DHT22;30191;50.908;6.962;2022-09-19T00:55:00;10.60;99.90
44487;DHT22;30191;50.908;6.962;2022-09-19T00:57:35;10.60;99.90
44487;DHT22;30191;50.908;6.962;2022-09-19T01:00:03;10.60;99.90
44487;DHT22;30191;50.908;6.962;2022-09-19T01:02:29;10.60;99.90
44487;DHT22;30191;50.908;6.962;2022-09-19T01:04:59;10.60;99.90
44487;DHT22;30191;50.908;6.962;2022-09-19T01:10:12;10.50;99.90
44487;DHT22;30191;50.908;6.962;2022-09-19T01:18:07;10.60;99.90
44487;DHT22;30191;50.908;6.962;2022-09-19T01:29:45;10.70;99.90
44487;DHT22;30191;50.908;6.962;2022-09-19T01:32:14;10.60;99.90
44487;DHT22;30191;50.908;6.962;2022-09-19T01:34:47;10.70;99.90
44487;DHT22;30191;50.908;6.962;2022-09-19T01:37:19;10.70;99.90
44487;DHT22;30191;50.908;6.962;2022-09-19T01:39:50;10.70;99.90
44487;DHT22;30191;50.908;6.962;2022-09-19T01:42:19;10.70;99.90
44487;DHT22;30191;50.908;6.962;2022-09-19T01:44:45;10.70;99.90
44487;DHT22;30191;50.908;6.962;2022-09-19T01:50:19;10.70;99.90
44487;DHT22;30191;50.908;6.962;2022-09-19T01:53:07;10.70;99.90
44487;DHT22;30191;50.908;6.962;2022-09-19T02:01:01;10.70;99.90
44487;DHT22;30191;50.908;6.962;2022-09-19T02:03:45;10.70;99.90
44487;DHT22;30191;50.908;6.962;2022-09-19T02:06:23;10.70;99.90
44487;DHT22;30191;50.908;6.962;2022-09-19T02:09:03;10.70;99.90
44487;DHT22;30191;50.908;6.962;2022-09-19T02:11:31;10.70;99.90
44487;DHT22;30191;50.908;6.962;2022-09-19T02:14:08;10.60;99.90
44487;DHT22;30191;50.908;6.962;2022-09-19T02:16:44;10.70;99.90
44487;DHT22;30191;50.908;6.962;2022-09-19T02:19:19;10.60;99.90
44487;DHT22;30191;50.908;6.962;2022-09-19T02:21:52;10.60;99.90
44487;DHT22;30191;50.908;6.962;2022-09-19T02:24:24;10.60;99.90
44487;DHT22;30191;50.908;6.962;2022-09-19T02:26:55;10.60;99.90
44487;DHT22;30191;50.908;6.962;2022-09-19T02:29:27;10.50;99.90
44487;DHT22;30191;50.908;6.962;2022-09-19T02:31:56;10.50;99.90
44487;DHT22;30191;50.908;6.962;2022-09-19T02:34:22;10.50;99.90
44487;DHT22;30191;50.908;6.962;2022-09-19T02:37:14;10.50;99.90
44487;DHT22;30191;50.908;6.962;2022-09-19T02:40:00;10.60;99.90
44487;DHT22;30191;50.908;6.962;2022-09-19T02:45:12;10.60;99.90
44487;DHT22;30191;50.908;6.962;2022-09-19T02:53:16;10.60;99.90
44487;DHT22;30191;50.908;6.962;2022-09-19T02:55:47;10.60;99.90
44487;DHT22;30191;50.908;6.962;2022-09-19T02:58:15;10.70;99.90
44487;DHT22;30191;50.908;6.962;2022-09-19T03:00:44;10.60;99.90
44487;DHT22;30191;50.908;6.962;2022-09-19T03:03:20;10.60;99.90
44487;DHT22;30191;50.908;6.962;2022-09-19T03:06:07;10.60;99.90
44487;DHT22;30191;50.908;6.962;2022-09-19T03:08:35;10.60;99.90
44487;DHT22;30191;50.908;6.962;2022-09-19T03:11:09;10.60;99.90
44487;DHT22;30191;50.908;6.962;2022-09-19T03:13:37;10.60;99.90
44487;DHT22;30191;50.908;6.962;2022-09-19T03:16:10;10.60;99.90
44487;DHT22;30191;50.908;6.962;2022-09-19T03:18:39;10.60;99.90
44487;DHT22;30191;50.908;6.962;2022-09-19T03:21:10;10.60;99.90
44487;DHT22;30191;50.908;6.962;2022-09-19T03:23:40;10.60;99.90
44487;DHT22;30191;50.908;6.962;2022-09-19T03:26:11;10.60;99.90
44487;DHT22;30191;50.908;6.962;2022-09-19T03:28:38;10.60;99.90
44487;DHT22;30191;50.908;6.962;2022-09-19T03:31:05;10.60;99.90
44487;DHT22;30191;50.908;6.962;2022-09-19T03:33:31;10.60;99.90
44487;DHT22;30191;50.908;6.962;2022-09-19T03:35:57;10.70;99.90
44487;DHT22;30191;50.908;6.962;2022-09-19T03:38:24;10.60;99.90
44487;DHT22;30191;50.908;6.962;2022-09-19T03:40:50;10.60;99.90
44487;DHT22;30191;50.908;6.962;2022-09-19T03:43:16;10.60;99.90
44487;DHT22;30191;50.908;6.962;2022-09-19T03:45:42;10.60;99.90
44487;DHT22;30191;50.908;6.962;2022-09-19T03:48:08;10.60;99.90
44487;DHT22;30191;50.908;6.962;2022-09-19T03:50:34;10.70;99.90
44487;DHT22;30191;50.908;6.962;2022-09-19T03:52:59;10.70;99.90
44487;DHT22;30191;50.908;6.962;2022-09-19T03:55:26;10.60;99.90
44487;DHT22;30191;50.908;6.962;2022-09-19T03:57:51;10.70;99.90
44487;DHT22;30191;50.908;6.962;2022-09-19T04:00:17;10.70;99.90
44487;DHT22;30191;50.908;6.962;2022-09-19T04:02:43;10.70;99.90
44487;DHT22;30191;50.908;6.962;2022-09-19T04:05:09;10.70;99.90
44487;DHT22;30191;50.908;6.962;2022-09-19T04:07:36;10.60;99.90
44487;DHT22;30191;50.908;6.962;2022-09-19T04:10:05;10.70;99.90
44487;DHT22;30191;50.908;6.962;2022-09-19T04:12:31;10.70;99.90
44487;DHT22;30191;50.908;6.962;2022-09-19T04:14:59;10.80;99.90
44487;DHT22;30191;50.908;6.962;2022-09-19T04:17:26;10.70;99.90
44487;DHT22;30191;50.908;6.962;2022-09-19T04:19:53;10.70;99.90
44487;DHT22;30191;50.908;6.962;2022-09-19T04:22:19;10.70;99.90
44487;DHT22;30191;50.908;6.962;2022-09-19T04:24:45;10.80;99.90
44487;DHT22;30191;50.908;6.962;2022-09-19T04:27:11;10.80;99.90
44487;DHT22;30191;50.908;6.962;2022-09-19T04:29:38;10.80;99.90
44487;DHT22;30191;50.908;6.962;2022-09-19T04:32:04;10.80;99.90
44487;DHT22;30191;50.908;6.962;2022-09-19T04:34:30;10.80;99.90
44487;DHT22;30191;50.908;6.962;2022-09-19T04:36:56;10.80;99.90
44487;DHT22;30191;50.908;6.962;2022-09-19T04:39:23;10.80;99.90
44487;DHT22;30191;50.908;6.962;2022-09-19T04:41:49;10.70;99.90
44487;DHT22;30191;50.908;6.962;2022-09-19T04:44:18;10.70;99.90
44487;DHT22;30191;50.908;6.962;2022-09-19T04:46:44;10.80;99.90
44487;DHT22;30191;50.908;6.962;2022-09-19T04:49:12;10.80;99.90
44487;DHT22;30191;50.908;6.962;2022-09-19T04:51:39;10.80;99.90
44487;DHT22;30191;50.908;6.962;2022-09-19T04:54:05;10.80;99.90
44487;DHT22;30191;50.908;6.962;2022-09-19T04:56:32;10.80;99.90
44487;DHT22;30191;50.908;6.962;2022-09-19T04:58:58;10.80;99.90
44487;DHT22;30191;50.908;6.962;2022-09-19T05:01:27;10.80;99.90
44487;DHT22;30191;50.908;6.962;2022-09-19T05:03:52;10.80;99.90
44487;DHT22;30191;50.908;6.962;2022-09-19T05:06:18;10.80;99.90
44487;DHT22;30191;50.908;6.962;2022-09-19T05:08:44;10.80;99.90
44487;DHT22;30191;50.908;6.962;2022-09-19T05:11:10;10.80;99.90
44487;DHT22;30191;50.908;6.962;2022-09-19T05:13:37;10.80;99.90
44487;DHT22;30191;50.908;6.962;2022-09-19T05:16:04;10.80;99.90
44487;DHT22;30191;50.908;6.962;2022-09-19T05:18:30;10.80;99.90
44487;DHT22;30191;50.908;6.962;2022-09-19T05:21:03;10.70;99.90
44487;DHT22;30191;50.908;6.962;2022-09-19T05:23:29;10.70;99.90
44487;DHT22;30191;50.908;6.962;2022-09-19T05:25:54;10.70;99.90
44487;DHT22;30191;50.908;6.962;2022-09-19T05:28:24;10.70;99.90
44487;DHT22;30191;50.908;6.962;2022-09-19T05:30:53;10.70;99.90
44487;DHT22;30191;50.908;6.962;2022-09-19T05:33:23;10.70;99.90
44487;DHT22;30191;50.908;6.962;2022-09-19T05:35:55;10.70;99.90
44487;DHT22;30191;50.908;6.962;2022-09-19T05:38:22;10.70;99.90
44487;DHT22;30191;50.908;6.962;2022-09-19T05:40:52;10.80;99.90
44487;DHT22;30191;50.908;6.962;2022-09-19T05:43:18;10.80;99.90
44487;DHT22;30191;50.908;6.962;2022-09-19T05:45:44;10.80;99.90
44487;DHT22;30191;50.908;6.962;2022-09-19T05:48:10;10.90;99.90
44487;DHT22;30191;50.908;6.962;2022-09-19T05:50:36;10.90;99.90
44487;DHT22;30191;50.908;6.962;2022-09-19T05:53:02;10.90;99.90
44487;DHT22;30191;50.908;6.962;2022-09-19T05:55:46;11.00;99.90
44487;DHT22;30191;50.908;6.962;2022-09-19T05:58:11;11.00;99.90
44487;DHT22;30191;50.908;6.962;2022-09-19T06:00:38;11.00;99.90
44487;DHT22;30191;50.908;6.962;2022-09-19T06:03:06;11.00;99.90
44487;DHT22;30191;50.908;6.962;2022-09-19T06:05:38;11.10;99.90
44487;DHT22;30191;50.908;6.962;2022-09-19T06:08:04;11.00;99.90
44487;DHT22;30191;50.908;6.962;2022-09-19T06:10:34;11.10;99.90
44487;DHT22;30191;50.908;6.962;2022-09-19T06:13:00;11.20;99.90
44487;DHT22;30191;50.908;6.962;2022-09-19T06:15:25;11.10;99.90
44487;DHT22;30191;50.908;6.962;2022-09-19T06:17:55;11.20;99.90
44487;DHT22;30191;50.908;6.962;2022-09-19T06:20:21;11.20;99.90
44487;DHT22;30191;50.908;6.962;2022-09-19T06:22:46;11.20;99.90
44487;DHT22;30191;50.908;6.962;2022-09-19T06:25:13;11.30;99.90
44487;DHT22;30191;50.908;6.962;2022-09-19T06:27:39;11.30;99.90
44487;DHT22;30191;50.908;6.962;2022-09-19T06:30:06;11.40;99.90
44487;DHT22;30191;50.908;6.962;2022-09-19T06:32:33;11.40;99.90
44487;DHT22;30191;50.908;6.962;2022-09-19T06:34:59;11.40;99.90
44487;DHT22;30191;50.908;6.962;2022-09-19T06:37:24;11.50;99.90
44487;DHT22;30191;50.908;6.962;2022-09-19T06:39:51;11.60;99.90
44487;DHT22;30191;50.908;6.962;2022-09-19T06:42:16;11.60;99.90
44487;DHT22;30191;50.908;6.962;2022-09-19T06:44:42;11.60;99.90
44487;DHT22;30191;50.908;6.962;2022-09-19T06:47:08;11.60;99.90
44487;DHT22;30191;50.908;6.962;2022-09-19T06:49:33;11.70;99.90
44487;DHT22;30191;50.908;6.962;2022-09-19T06:52:00;11.70;99.90
44487;DHT22;30191;50.908;6.962;2022-09-19T06:54:26;11.70;99.90
44487;DHT22;30191;50.908;6.962;2022-09-19T06:56:52;11.70;99.90
44487;DHT22;30191;50.908;6.962;2022-09-19T06:59:18;11.80;99.90
44487;DHT22;30191;50.908;6.962;2022-09-19T07:01:44;11.80;99.90
44487;DHT22;30191;50.908;6.962;2022-09-19T07:04:13;11.90;99.90
44487;DHT22;30191;50.908;6.962;2022-09-19T07:06:38;11.90;99.90
44487;DHT22;30191;50.908;6.962;2022-09-19T07:09:04;12.00;99.90
44487;DHT22;30191;50.908;6.962;2022-09-19T07:11:33;12.00;99.90
44487;DHT22;30191;50.908;6.962;2022-09-19T07:14:01;12.00;99.90
44487;DHT22;30191;50.908;6.962;2022-09-19T07:16:27;12.00;99.90
44487;DHT22;30191;50.908;6.962;2022-09-19T07:18:53;12.10;99.90
44487;DHT22;30191;50.908;6.962;2022-09-19T07:21:18;12.10;99.90
44487;DHT22;30191;50.908;6.962;2022-09-19T07:23:44;12.20;99.90
44487;DHT22;30191;50.908;6.962;2022-09-19T07:26:11;12.20;99.90
44487;DHT22;30191;50.908;6.962;2022-09-19T07:28:37;12.20;99.90
44487;DHT22;30191;50.908;6.962;2022-09-19T07:31:03;12.30;99.90
44487;DHT22;30191;50.908;6.962;2022-09-19T07:33:28;12.30;99.90
44487;DHT22;30191;50.908;6.962;2022-09-19T07:35:55;12.40;99.90
44487;DHT22;30191;50.908;6.962;2022-09-19T07:38:22;12.30;99.90
44487;DHT22;30191;50.908;6.962;2022-09-19T07:40:48;12.40;99.90
44487;DHT22;30191;50.908;6.962;2022-09-19T07:43:15;12.50;99.90
44487;DHT22;30191;50.908;6.962;2022-09-19T07:45:50;12.50;99.90
44487;DHT22;30191;50.908;6.962;2022-09-19T07:48:17;12.50;99.90
44487;DHT22;30191;50.908;6.962;2022-09-19T07:50:44;12.50;99.90
44487;DHT22;30191;50.908;6.962;2022-09-19T07:53:11;12.50;99.90
44487;DHT22;30191;50.908;6.962;2022-09-19T07:55:38;12.50;99.90
44487;DHT22;30191;50.908;6.962;2022-09-19T07:58:04;12.50;99.90
44487;DHT22;30191;50.908;6.962;2022-09-19T08:00:32;12.50;99.90
44487;DHT22;30191;50.908;6.962;2022-09-19T08:02:59;12.60;99.90
44487;DHT22;30191;50.908;6.962;2022-09-19T08:05:26;12.60;99.90
44487;DHT22;30191;50.908;6.962;2022-09-19T08:07:53;12.60;99.90
44487;DHT22;30191;50.908;6.962;2022-09-19T08:10:20;12.70;99.90
44487;DHT22;30191;50.908;6.962;2022-09-19T08:12:47;12.70;99.90
44487;DHT22;30191;50.908;6.962;2022-09-19T08:15:14;12.80;99.90
44487;DHT22;30191;50.908;6.962;2022-09-19T08:18:04;12.80;99.90
44487;DHT22;30191;50.908;6.962;2022-09-19T08:20:30;12.80;99.90
44487;DHT22;30191;50.908;6.962;2022-09-19T08:23:10;12.80;99.90
44487;DHT22;30191;50.908;6.962;2022-09-19T08:25:38;12.90;99.90
44487;DHT22;30191;50.908;6.962;2022-09-19T08:28:05;12.90;99.90
44487;DHT22;30191;50.908;6.962;2022-09-19T08:30:32;12.90;99.90
44487;DHT22;30191;50.908;6.962;2022-09-19T08:32:59;13.00;99.90
44487;DHT22;30191;50.908;6.962;2022-09-19T08:35:27;13.00;99.90
44487;DHT22;30191;50.908;6.962;2022-09-19T08:37:55;13.00;99.90
44487;DHT22;30191;50.908;6.962;2022-09-19T08:51:28;12.90;99.90
44487;DHT22;30191;50.908;6.962;2022-09-19T08:54:00;12.90;99.90
44487;DHT22;30191;50.908;6.962;2022-09-19T08:56:28;12.90;99.90
44487;DHT22;30191;50.908;6.962;2022-09-19T08:58:59;13.00;99.90
44487;DHT22;30191;50.908;6.962;2022-09-19T09:01:29;13.10;99.90
44487;DHT22;30191;50.908;6.962;2022-09-19T09:09:55;13.20;99.90
44487;DHT22;30191;50.908;6.962;2022-09-19T09:12:36;13.20;99.90
44487;DHT22;30191;50.908;6.962;2022-09-19T09:23:23;13.50;99.90
44487;DHT22;30191;50.908;6.962;2022-09-19T09:25:58;13.50;99.90
44487;DHT22;30191;50.908;6.962;2022-09-19T09:28:52;13.60;99.90
44487;DHT22;30191;50.908;6.962;2022-09-19T09:31:40;13.60;99.90
44487;DHT22;30191;50.908;6.962;2022-09-19T09:34:34;13.70;99.90
44487;DHT22;30191;50.908;6.962;2022-09-19T09:37:08;13.80;99.90
44487;DHT22;30191;50.908;6.962;2022-09-19T09:39:45;13.90;99.90
44487;DHT22;30191;50.908;6.962;2022-09-19T09:42:21;13.90;99.90
44487;DHT22;30191;50.908;6.962;2022-09-19T09:48:05;14.10;99.90
44487;DHT22;30191;50.908;6.962;2022-09-19T09:53:32;14.30;99.90
44487;DHT22;30191;50.908;6.962;2022-09-19T09:56:18;14.40;99.90
44487;DHT22;30191;50.908;6.962;2022-09-19T10:10:04;14.70;99.90
44487;DHT22;30191;50.908;6.962;2022-09-19T10:15:06;14.80;99.90
44487;DHT22;30191;50.908;6.962;2022-09-19T10:17:40;14.80;99.90
44487;DHT22;30191;50.908;6.962;2022-09-19T10:20:16;14.80;99.90
44487;DHT22;30191;50.908;6.962;2022-09-19T10:22:44;14.90;99.90
44487;DHT22;30191;50.908;6.962;2022-09-19T10:25:18;15.00;99.90
44487;DHT22;30191;50.908;6.962;2022-09-19T10:27:46;14.90;99.90
44487;DHT22;30191;50.908;6.962;2022-09-19T10:30:23;15.00;99.90
44487;DHT22;30191;50.908;6.962;2022-09-19T10:32:53;15.10;99.90
44487;DHT22;30191;50.908;6.962;2022-09-19T10:35:35;15.30;99.90
44487;DHT22;30191;50.908;6.962;2022-09-19T10:38:14;15.30;99.90
44487;DHT22;30191;50.908;6.962;2022-09-19T10:41:06;15.20;99.90
44487;DHT22;30191;50.908;6.962;2022-09-19T10:43:39;15.20;99.90
44487;DHT22;30191;50.908;6.962;2022-09-19T10:46:19;15.20;99.90
44487;DHT22;30191;50.908;6.962;2022-09-19T10:48:55;15.10;99.90
44487;DHT22;30191;50.908;6.962;2022-09-19T10:51:25;15.20;99.90
44487;DHT22;30191;50.908;6.962;2022-09-19T10:53:55;15.10;99.90
44487;DHT22;30191;50.908;6.962;2022-09-19T10:56:32;15.10;99.90
44487;DHT22;30191;50.908;6.962;2022-09-19T10:59:22;15.20;99.90
44487;DHT22;30191;50.908;6.962;2022-09-19T11:04:37;15.30;99.90
44487;DHT22;30191;50.908;6.962;2022-09-19T11:07:15;15.30;99.90
44487;DHT22;30191;50.908;6.962;2022-09-19T11:09:43;15.20;99.90
44487;DHT22;30191;50.908;6.962;2022-09-19T11:12:12;15.30;99.90
44487;DHT22;30191;50.908;6.962;2022-09-19T11:14:42;15.40;99.90
44487;DHT22;30191;50.908;6.962;2022-09-19T11:17:57;15.40;99.90
44487;DHT22;30191;50.908;6.962;2022-09-19T11:29:06;15.70;99.90
44487;DHT22;30191;50.908;6.962;2022-09-19T11:34:38;15.90;99.90
44487;DHT22;30191;50.908;6.962;2022-09-19T11:40:14;16.10;99.90
44487;DHT22;30191;50.908;6.962;2022-09-19T11:45:11;16.20;99.90
44487;DHT22;30191;50.908;6.962;2022-09-19T11:50:45;16.40;99.90
44487;DHT22;30191;50.908;6.962;2022-09-19T12:01:36;16.70;99.90
44487;DHT22;30191;50.908;6.962;2022-09-19T12:08:09;16.80;99.90
44487;DHT22;30191;50.908;6.962;2022-09-19T12:10:06;17.00;99.90
44487;DHT22;30191;50.908;6.962;2022-09-19T12:12:36;17.00;99.90
44487;DHT22;30191;50.908;6.962;2022-09-19T12:15:19;17.00;99.90
44487;DHT22;30191;50.908;6.962;2022-09-19T12:20:38;17.10;99.90
44487;DHT22;30191;50.908;6.962;2022-09-19T12:23:59;17.00;99.90
44487;DHT22;30191;50.908;6.962;2022-09-19T12:26:28;17.00;99.90
44487;DHT22;30191;50.908;6.962;2022-09-19T12:29:27;17.20;99.90
44487;DHT22;30191;50.908;6.962;2022-09-19T12:32:00;17.40;99.90
44487;DHT22;30191;50.908;6.962;2022-09-19T12:42:52;17.70;99.90
44487;DHT22;30191;50.908;6.962;2022-09-19T12:45:30;17.50;99.90
44487;DHT22;30191;50.908;6.962;2022-09-19T12:48:13;17.20;99.90
44487;DHT22;30191;50.908;6.962;2022-09-19T12:50:43;17.20;99.90
44487;DHT22;30191;50.908;6.962;2022-09-19T12:53:35;17.20;99.90
44487;DHT22;30191;50.908;6.962;2022-09-19T12:56:23;16.90;99.90
44487;DHT22;30191;50.908;6.962;2022-09-19T12:59:02;16.40;99.90
44487;DHT22;30191;50.908;6.962;2022-09-19T13:01:39;15.90;99.90
44487;DHT22;30191;50.908;6.962;2022-09-19T13:12:31;14.70;99.90
44487;DHT22;30191;50.908;6.962;2022-09-19T13:15:03;14.50;99.90
44487;DHT22;30191;50.908;6.962;2022-09-19T13:17:36;14.40;99.90
44487;DHT22;30191;50.908;6.962;2022-09-19T13:20:24;14.20;99.90
44487;DHT22;30191;50.908;6.962;2022-09-19T13:23:16;14.10;99.90
44487;DHT22;30191;50.908;6.962;2022-09-19T13:25:56;14.20;99.90
44487;DHT22;30191;50.908;6.962;2022-09-19T13:28:26;14.20;99.90
44487;DHT22;30191;50.908;6.962;2022-09-19T13:33:47;14.40;99.90
44487;DHT22;30191;50.908;6.962;2022-09-19T13:38:52;14.40;99.90
44487;DHT22;30191;50.908;6.962;2022-09-19T13:41:26;14.40;99.90
44487;DHT22;30191;50.908;6.962;2022-09-19T13:52:22;14.30;99.90
44487;DHT22;30191;50.908;6.962;2022-09-19T13:57:22;14.30;99.90
44487;DHT22;30191;50.908;6.962;2022-09-19T13:59:54;14.30;99.90
44487;DHT22;30191;50.908;6.962;2022-09-19T14:02:41;14.40;99.90
44487;DHT22;30191;50.908;6.962;2022-09-19T14:05:16;14.70;99.90
44487;DHT22;30191;50.908;6.962;2022-09-19T14:07:54;15.10;99.90
44487;DHT22;30191;50.908;6.962;2022-09-19T14:18:29;16.50;99.90
44487;DHT22;30191;50.908;6.962;2022-09-19T14:21:00;17.00;99.90
44487;DHT22;30191;50.908;6.962;2022-09-19T14:23:32;17.30;99.90
44487;DHT22;30191;50.908;6.962;2022-09-19T14:28:55;17.50;99.90
44487;DHT22;30191;50.908;6.962;2022-09-19T14:51:31;25.70;93.00
44487;DHT22;30191;50.908;6.962;2022-09-19T14:54:57;25.50;93.00
44487;DHT22;30191;50.908;6.962;2022-09-19T14:57:05;24.80;92.80
44487;DHT22;30191;50.908;6.962;2022-09-19T14:59:39;23.00;94.70
44487;DHT22;30191;50.908;6.962;2022-09-19T15:02:29;21.70;97.00
44487;DHT22;30191;50.908;6.962;2022-09-19T15:05:30;20.50;98.80
44487;DHT22;30191;50.908;6.962;2022-09-19T15:08:15;19.70;99.90
44487;DHT22;30191;50.908;6.962;2022-09-19T15:10:46;18.90;99.90
44487;DHT22;30191;50.908;6.962;2022-09-19T15:15:53;17.80;99.90
44487;DHT22;30191;50.908;6.962;2022-09-19T15:18:23;17.50;99.90
44487;DHT22;30191;50.908;6.962;2022-09-19T15:20:54;17.30;99.90
44487;DHT22;30191;50.908;6.962;2022-09-19T15:23:22;17.10;99.90
44487;DHT22;30191;50.908;6.962;2022-09-19T15:26:02;17.00;99.90
44487;DHT22;30191;50.908;6.962;2022-09-19T15:28:30;16.80;99.90
44487;DHT22;30191;50.908;6.962;2022-09-19T15:33:43;16.50;99.90
44487;DHT22;30191;50.908;6.962;2022-09-19T15:36:19;16.30;99.90
44487;DHT22;30191;50.908;6.962;2022-09-19T15:38:48;16.20;99.90
44487;DHT22;30191;50.908;6.962;2022-09-19T15:41:15;16.10;99.90
44487;DHT22;30191;50.908;6.962;2022-09-19T15:43:45;16.00;99.90
44487;DHT22;30191;50.908;6.962;2022-09-19T15:49:01;15.90;99.90
44487;DHT22;30191;50.908;6.962;2022-09-19T15:51:35;15.70;99.90
44487;DHT22;30191;50.908;6.962;2022-09-19T15:54:19;15.70;99.90
44487;DHT22;30191;50.908;6.962;2022-09-19T15:56:48;15.80;99.90
44487;DHT22;30191;50.908;6.962;2022-09-19T15:59:20;15.90;99.90
44487;DHT22;30191;50.908;6.962;2022-09-19T16:01:49;16.00;99.90
44487;DHT22;30191;50.908;6.962;2022-09-19T16:04:19;16.20;99.90
44487;DHT22;30191;50.908;6.962;2022-09-19T16:09:41;16.40;99.90
44487;DHT22;30191;50.908;6.962;2022-09-19T16:14:56;16.30;99.90
44487;DHT22;30191;50.908;6.962;2022-09-19T16:17:23;16.30;99.90
44487;DHT22;30191;50.908;6.962;2022-09-19T16:19:51;16.20;99.90
44487;DHT22;30191;50.908;6.962;2022-09-19T16:22:22;16.20;99.90
44487;DHT22;30191;50.908;6.962;2022-09-19T16:25:00;16.10;99.90
44487;DHT22;30191;50.908;6.962;2022-09-19T16:27:29;16.00;99.90
44487;DHT22;30191;50.908;6.962;2022-09-19T16:30:00;16.00;99.90
44487;DHT22;30191;50.908;6.962;2022-09-19T16:32:27;15.90;99.90
44487;DHT22;30191;50.908;6.962;2022-09-19T16:34:57;15.90;99.90
44487;DHT22;30191;50.908;6.962;2022-09-19T16:37:40;15.90;99.90
44487;DHT22;30191;50.908;6.962;2022-09-19T16:40:23;15.90;99.90
44487;DHT22;30191;50.908;6.962;2022-09-19T16:42:52;16.10;99.90
44487;DHT22;30191;50.908;6.962;2022-09-19T16:45:22;16.20;99.90
44487;DHT22;30191;50.908;6.962;2022-09-19T16:48:00;16.20;99.90
44487;DHT22;30191;50.908;6.962;2022-09-19T16:50:26;16.20;99.90
44487;DHT22;30191;50.908;6.962;2022-09-19T16:52:53;16.20;99.90
44487;DHT22;30191;50.908;6.962;2022-09-19T16:57:49;16.10;99.90
44487;DHT22;30191;50.908;6.962;2022-09-19T17:00:15;16.00;99.90
44487;DHT22;30191;50.908;6.962;2022-09-19T17:02:41;15.90;99.90
44487;DHT22;30191;50.908;6.962;2022-09-19T17:05:16;15.80;99.90
44487;DHT22;30191;50.908;6.962;2022-09-19T17:07:45;15.80;99.90
44487;DHT22;30191;50.908;6.962;2022-09-19T17:10:12;15.70;99.90
44487;DHT22;30191;50.908;6.962;2022-09-19T17:12:40;15.60;99.90
44487;DHT22;30191;50.908;6.962;2022-09-19T17:18:01;15.60;99.90
44487;DHT22;30191;50.908;6.962;2022-09-19T17:20:27;15.50;99.90
44487;DHT22;30191;50.908;6.962;2022-09-19T17:22:53;15.50;99.90
44487;DHT22;30191;50.908;6.962;2022-09-19T17:25:44;15.50;99.90
44487;DHT22;30191;50.908;6.962;2022-09-19T17:28:15;15.40;99.90
44487;DHT22;30191;50.908;6.962;2022-09-19T17:30:43;15.40;99.90
44487;DHT22;30191;50.908;6.962;2022-09-19T17:33:20;15.30;99.90
44487;DHT22;30191;50.908;6.962;2022-09-19T17:35:46;15.30;99.90
44487;DHT22;30191;50.908;6.962;2022-09-19T17:38:12;15.30;99.90
44487;DHT22;30191;50.908;6.962;2022-09-19T17:40:41;15.30;99.90
44487;DHT22;30191;50.908;6.962;2022-09-19T17:43:12;15.20;99.90
44487;DHT22;30191;50.908;6.962;2022-09-19T17:45:41;15.20;99.90
44487;DHT22;30191;50.908;6.962;2022-09-19T17:48:09;15.20;99.90
44487;DHT22;30191;50.908;6.962;2022-09-19T17:50:36;15.20;99.90
44487;DHT22;30191;50.908;6.962;2022-09-19T17:53:01;15.20;99.90
44487;DHT22;30191;50.908;6.962;2022-09-19T17:55:27;15.20;99.90
44487;DHT22;30191;50.908;6.962;2022-09-19T17:57:53;15.20;99.90
44487;DHT22;30191;50.908;6.962;2022-09-19T18:00:21;15.20;99.90
44487;DHT22;30191;50.908;6.962;2022-09-19T18:02:46;15.20;99.90
44487;DHT22;30191;50.908;6.962;2022-09-19T18:05:31;15.10;99.90
44487;DHT22;30191;50.908;6.962;2022-09-19T18:08:01;15.10;99.90
44487;DHT22;30191;50.908;6.962;2022-09-19T18:10:28;15.10;99.90
44487;DHT22;30191;50.908;6.962;2022-09-19T18:12:56;15.10;99.90
44487;DHT22;30191;50.908;6.962;2022-09-19T18:15:24;15.10;99.90
44487;DHT22;30191;50.908;6.962;2022-09-19T18:17:54;15.10;99.90
44487;DHT22;30191;50.908;6.962;2022-09-19T18:20:21;15.00;99.90
44487;DHT22;30191;50.908;6.962;2022-09-19T18:22:48;15.00;99.90
44487;DHT22;30191;50.908;6.962;2022-09-19T18:25:15;15.00;99.90
44487;DHT22;30191;50.908;6.962;2022-09-19T18:27:46;15.00;99.90
44487;DHT22;30191;50.908;6.962;2022-09-19T18:30:15;15.00;99.90
44487;DHT22;30191;50.908;6.962;2022-09-19T18:32:46;14.90;99.90
44487;DHT22;30191;50.908;6.962;2022-09-19T18:35:14;14.90;99.90
44487;DHT22;30191;50.908;6.962;2022-09-19T18:37:40;14.90;99.90
44487;DHT22;30191;50.908;6.962;2022-09-19T18:40:08;14.90;99.90
44487;DHT22;30191;50.908;6.962;2022-09-19T18:42:35;14.80;99.90
44487;DHT22;30191;50.908;6.962;2022-09-19T18:45:01;14.80;99.90
44487;DHT22;30191;50.908;6.962;2022-09-19T18:47:31;14.70;99.90
44487;DHT22;30191;50.908;6.962;2022-09-19T18:49:59;14.70;99.90
44487;DHT22;30191;50.908;6.962;2022-09-19T18:52:26;14.80;99.90
44487;DHT22;30191;50.908;6.962;2022-09-19T18:54:52;14.70;99.90
44487;DHT22;30191;50.908;6.962;2022-09-19T18:57:18;14.70;99.90
44487;DHT22;30191;50.908;6.962;2022-09-19T18:59:43;14.70;99.90
44487;DHT22;30191;50.908;6.962;2022-09-19T19:02:09;14.60;99.90
44487;DHT22;30191;50.908;6.962;2022-09-19T19:04:35;14.60;99.90
44487;DHT22;30191;50.908;6.962;2022-09-19T19:07:03;14.50;99.90
44487;DHT22;30191;50.908;6.962;2022-09-19T19:09:30;14.50;99.90
44487;DHT22;30191;50.908;6.962;2022-09-19T19:11:56;14.40;99.90